Metar z połowy godziny Komunikat METAR ze strony awiacja.imgw.pl Metar G00 EPGD METAR EPGD 230730Z 29020KT 9999 FEW033 06/M02 Q1016 =